Time;durP1;ratioP1;P1;durP2;ratioP2;P2;SDS_P1;SDS_P2;PMS_P1;PMS_P2;Temp;Humidity;BMP_temperature;BMP_pressure;BME280_temperature;BME280_humidity;BME280_pressure;Samples;Min_cycle;Max_cycle;Signal;HPM_P1;HPM_P2
2021/03/08 00:02:15;;;;;;;2.17;2.08;;;6.60;99.90;;;;;;5054456;28;20169;-78
2021/03/08 00:04:40;;;;;;;1.13;1.13;;;6.40;99.90;;;;;;5054138;28;20246;-78
2021/03/08 00:07:06;;;;;;;1.15;1.15;;;6.60;99.90;;;;;;5054099;28;20271;-78
2021/03/08 00:09:31;;;;;;;0.73;0.73;;;6.70;99.90;;;;;;5054660;28;20166;-78
2021/03/08 00:11:57;;;;;;;0.75;0.75;;;6.90;99.90;;;;;;5036752;28;20183;-78
2021/03/08 00:14:23;;;;;;;1.08;1.08;;;6.90;99.90;;;;;;5054280;28;20847;-77
2021/03/08 00:16:49;;;;;;;1.15;1.08;;;7.00;99.90;;;;;;5053792;28;20195;-77
2021/03/08 00:19:14;;;;;;;1.40;1.33;;;6.90;99.90;;;;;;5036223;28;20175;-77
2021/03/08 00:21:40;;;;;;;0.60;0.60;;;6.70;99.90;;;;;;5054147;28;20657;-79
2021/03/08 00:24:06;;;;;;;3.13;1.35;;;6.50;99.90;;;;;;5036195;28;20181;-77
2021/03/08 00:26:31;;;;;;;0.80;0.80;;;6.50;99.90;;;;;;5054193;28;20568;-79
2021/03/08 00:28:57;;;;;;;1.58;1.48;;;6.50;99.90;;;;;;5054209;28;20166;-78
2021/03/08 00:31:23;;;;;;;0.75;0.75;;;6.70;99.90;;;;;;5054071;28;20246;-78
2021/03/08 00:33:48;;;;;;;6.20;1.23;;;6.90;99.90;;;;;;5055009;28;20224;-78
2021/03/08 00:36:14;;;;;;;0.82;0.82;;;7.10;99.90;;;;;;5066606;28;20183;-78
2021/03/08 00:38:39;;;;;;;2.50;1.60;;;7.20;99.90;;;;;;5071076;28;20254;-78
2021/03/08 00:41:05;;;;;;;1.23;1.20;;;7.10;99.90;;;;;;5073505;28;20199;-79
2021/03/08 00:43:30;;;;;;;3.50;2.40;;;7.10;99.90;;;;;;5055642;28;20179;-78
2021/03/08 00:45:56;;;;;;;2.15;1.80;;;7.20;99.90;;;;;;5053947;28;20159;-77
2021/03/08 00:48:22;;;;;;;0.60;0.60;;;7.20;99.90;;;;;;5054175;28;20183;-78
2021/03/08 00:50:48;;;;;;;1.10;1.10;;;6.90;99.90;;;;;;5054023;28;20163;-78
2021/03/08 00:53:13;;;;;;;1.27;1.27;;;6.70;99.90;;;;;;5053976;28;20618;-78
2021/03/08 00:55:39;;;;;;;0.75;0.75;;;6.90;99.90;;;;;;5053644;28;20196;-78
2021/03/08 00:58:05;;;;;;;4.13;1.40;;;7.00;99.90;;;;;;5053342;28;20219;-78
2021/03/08 01:00:30;;;;;;;0.95;0.57;;;7.20;99.90;;;;;;5053663;28;20242;-78
2021/03/08 01:02:56;;;;;;;2.05;1.60;;;7.20;99.90;;;;;;5053597;28;20155;-78
2021/03/08 01:05:23;;;;;;;1.63;1.50;;;7.00;99.90;;;;;;5053578;28;20175;-78
2021/03/08 01:07:50;;;;;;;0.93;0.80;;;7.00;99.90;;;;;;5036121;28;20183;-78
2021/03/08 01:10:20;;;;;;;3.08;2.28;;;7.00;99.90;;;;;;5053450;28;20651;-78
2021/03/08 01:12:46;;;;;;;1.33;1.27;;;6.90;99.90;;;;;;5054069;28;20147;-77
2021/03/08 01:15:12;;;;;;;1.55;1.45;;;6.90;99.90;;;;;;5054098;28;20653;-76
2021/03/08 01:17:38;;;;;;;2.70;2.28;;;6.70;99.90;;;;;;5053185;28;20223;-77
2021/03/08 01:20:10;;;;;;;0.60;0.60;;;6.60;99.90;;;;;;5053491;28;20183;-77
2021/03/08 01:22:36;;;;;;;3.40;1.30;;;6.50;99.90;;;;;;5053620;28;20516;-77
2021/03/08 01:25:06;;;;;;;1.42;1.33;;;6.10;99.90;;;;;;5054409;28;20171;-77
2021/03/08 01:27:31;;;;;;;0.40;0.40;;;6.10;99.90;;;;;;5057669;28;20195;-76
2021/03/08 01:29:57;;;;;;;3.42;1.45;;;6.00;99.90;;;;;;5057462;28;20164;-76
2021/03/08 01:32:22;;;;;;;1.88;1.77;;;6.30;99.90;;;;;;5057487;28;20615;-76
2021/03/08 01:34:48;;;;;;;0.73;0.73;;;6.40;99.90;;;;;;5057246;28;20213;-77
2021/03/08 01:37:14;;;;;;;2.72;1.90;;;6.40;99.90;;;;;;5057401;28;20195;-77
2021/03/08 01:39:40;;;;;;;1.48;1.38;;;6.20;99.90;;;;;;5057292;28;20273;-77
2021/03/08 01:42:05;;;;;;;2.30;1.77;;;6.10;99.90;;;;;;5057449;28;20200;-77
2021/03/08 01:44:31;;;;;;;2.83;1.92;;;6.00;99.90;;;;;;5057250;28;20194;-78
2021/03/08 01:46:56;;;;;;;2.05;0.73;;;5.90;99.90;;;;;;5056731;28;20183;-77
2021/03/08 01:49:22;;;;;;;1.10;1.10;;;6.00;99.90;;;;;;5057611;28;20183;-77
2021/03/08 01:51:48;;;;;;;0.82;0.82;;;5.90;99.90;;;;;;5056668;28;20649;-77
2021/03/08 01:54:13;;;;;;;6.88;0.88;;;5.90;99.90;;;;;;5056988;28;20646;-78
2021/03/08 01:56:39;;;;;;;0.70;0.70;;;6.00;99.90;;;;;;5056672;28;20638;-78
2021/03/08 01:59:05;;;;;;;1.33;1.27;;;6.10;99.90;;;;;;5056631;28;20225;-77
2021/03/08 02:01:31;;;;;;;2.28;2.08;;;6.00;99.90;;;;;;5056684;28;20203;-78
2021/03/08 02:03:56;;;;;;;0.30;0.30;;;5.70;99.90;;;;;;5057072;28;20164;-77
2021/03/08 02:06:22;;;;;;;2.33;1.90;;;5.50;99.90;;;;;;5056486;28;20233;-78
2021/03/08 02:08:47;;;;;;;0.70;0.70;;;5.50;99.90;;;;;;5056543;28;20164;-78
2021/03/08 02:11:13;;;;;;;2.22;2.13;;;5.50;99.90;;;;;;5038881;28;20171;-78
2021/03/08 02:13:58;;;;;;;0.82;0.80;;;5.20;99.90;;;;;;5056502;28;20198;-77
2021/03/08 02:17:15;;;;;;;1.75;1.65;;;5.20;99.90;;;;;;5056153;28;20183;-78
2021/03/08 02:19:59;;;;;;;1.40;1.40;;;5.40;99.90;;;;;;5012329;28;20326;-77
2021/03/08 02:22:46;;;;;;;3.70;1.52;;;5.40;99.90;;;;;;5056858;28;20224;-78
2021/03/08 02:25:57;;;;;;;0.85;0.85;;;5.40;99.90;;;;;;5056189;28;20167;-78
2021/03/08 02:28:44;;;;;;;0.60;0.60;;;5.50;99.90;;;;;;5009509;28;20179;-78
2021/03/08 02:31:15;;;;;;;4.68;1.88;;;5.50;99.90;;;;;;5056168;28;20645;-77
2021/03/08 02:33:46;;;;;;;8.63;1.98;;;5.40;99.90;;;;;;5056780;28;20167;-77
2021/03/08 02:36:12;;;;;;;0.95;0.95;;;5.00;99.90;;;;;;5056282;28;20718;-77
2021/03/08 02:38:46;;;;;;;0.85;0.85;;;5.00;99.90;;;;;;5057471;28;20171;-77
2021/03/08 02:41:20;;;;;;;2.72;2.47;;;4.90;99.90;;;;;;5058111;28;20202;-79
2021/03/08 02:43:51;;;;;;;0.45;0.45;;;4.80;99.90;;;;;;5058061;28;20205;-78
2021/03/08 02:46:22;;;;;;;3.70;2.83;;;4.80;99.90;;;;;;5056946;28;20666;-78
2021/03/08 02:48:49;;;;;;;2.28;2.05;;;5.00;99.90;;;;;;5057412;28;20537;-78
2021/03/08 02:51:17;;;;;;;5.57;2.70;;;5.00;99.90;;;;;;5057290;28;20576;-78
2021/03/08 02:53:46;;;;;;;0.50;0.50;;;4.70;99.90;;;;;;5057350;28;20622;-78
2021/03/08 02:56:18;;;;;;;0.50;0.50;;;4.60;99.90;;;;;;5056448;28;20593;-78
2021/03/08 02:58:49;;;;;;;0.70;0.70;;;4.40;99.90;;;;;;5056800;28;20215;-78
2021/03/08 03:01:17;;;;;;;2.60;2.40;;;4.50;99.90;;;;;;5056086;28;20206;-79
2021/03/08 03:03:45;;;;;;;1.85;1.70;;;4.40;99.90;;;;;;5056473;28;20512;-79
2021/03/08 03:06:12;;;;;;;1.20;1.10;;;4.30;99.90;;;;;;5056374;28;20275;-78
2021/03/08 03:08:39;;;;;;;0.82;0.82;;;4.20;99.90;;;;;;5056178;28;20229;-77
2021/03/08 03:11:07;;;;;;;1.58;1.48;;;4.30;99.90;;;;;;5059289;28;20652;-77
2021/03/08 03:13:35;;;;;;;6.50;2.38;;;4.20;99.90;;;;;;5064536;28;20167;-77
2021/03/08 03:16:01;;;;;;;0.65;0.65;;;3.90;99.90;;;;;;5067302;28;20155;-78
2021/03/08 03:18:29;;;;;;;4.88;1.17;;;3.80;99.90;;;;;;5057890;28;20179;-79
2021/03/08 03:20:56;;;;;;;0.45;0.45;;;3.90;99.90;;;;;;5056990;28;20249;-78
2021/03/08 03:23:23;;;;;;;1.08;1.08;;;3.90;99.90;;;;;;5056966;28;20187;-78
2021/03/08 03:25:49;;;;;;;0.95;0.95;;;4.00;99.90;;;;;;5057291;28;20486;-78
2021/03/08 03:28:17;;;;;;;5.57;1.38;;;4.10;99.90;;;;;;5058362;28;20171;-79
2021/03/08 03:30:43;;;;;;;1.25;1.15;;;4.00;99.90;;;;;;5057649;28;20186;-79
2021/03/08 03:33:10;;;;;;;1.87;1.80;;;3.90;99.90;;;;;;5056918;28;20156;-79
2021/03/08 03:35:35;;;;;;;1.65;0.85;;;3.80;99.90;;;;;;5056576;28;20186;-78
2021/03/08 03:38:02;;;;;;;1.35;1.27;;;3.80;99.90;;;;;;5056550;28;20552;-80
2021/03/08 03:40:28;;;;;;;2.43;1.87;;;4.00;99.90;;;;;;5037763;28;20739;-78
2021/03/08 03:42:54;;;;;;;3.97;1.30;;;4.30;99.90;;;;;;5055170;28;20164;-79
2021/03/08 03:45:21;;;;;;;1.40;1.40;;;4.30;99.90;;;;;;5054995;28;20191;-78
2021/03/08 03:47:48;;;;;;;0.55;0.55;;;4.20;99.90;;;;;;5054172;28;20186;-78
2021/03/08 03:50:16;;;;;;;3.88;1.95;;;4.20;99.90;;;;;;5054753;28;20178;-79
2021/03/08 03:52:43;;;;;;;0.68;0.68;;;4.30;99.90;;;;;;5055051;28;20566;-78
2021/03/08 03:55:11;;;;;;;1.52;1.42;;;4.20;99.90;;;;;;5054755;28;20512;-78
2021/03/08 03:58:09;;;;;;;3.10;1.88;;;4.10;99.90;;;;;;5054544;28;20225;-78
2021/03/08 04:00:44;;;;;;;1.23;1.23;;;4.00;99.90;;;;;;5054383;28;20203;-78
2021/03/08 04:03:11;;;;;;;1.52;1.42;;;4.10;99.90;;;;;;5054276;28;20178;-78
2021/03/08 04:05:39;;;;;;;0.65;0.65;;;4.00;99.90;;;;;;5054504;28;20168;-78
2021/03/08 04:08:07;;;;;;;2.25;1.05;;;4.00;99.90;;;;;;5054299;28;20547;-78
2021/03/08 04:10:35;;;;;;;1.50;1.50;;;4.00;99.90;;;;;;5054782;28;20171;-78
2021/03/08 04:13:11;;;;;;;0.98;0.95;;;4.20;99.90;;;;;;5054193;28;20555;-78
2021/03/08 04:15:38;;;;;;;2.17;2.07;;;4.40;99.90;;;;;;5054222;28;20163;-78
2021/03/08 04:18:05;;;;;;;1.00;1.00;;;4.30;99.90;;;;;;5054248;28;20234;-78
2021/03/08 04:20:32;;;;;;;1.83;1.73;;;4.20;99.90;;;;;;5054902;28;20207;-79
2021/03/08 04:23:03;;;;;;;1.10;1.10;;;4.30;99.90;;;;;;5054626;28;20160;-78
2021/03/08 04:25:30;;;;;;;1.93;1.73;;;4.30;99.90;;;;;;5054283;28;20622;-79
2021/03/08 04:27:59;;;;;;;1.27;1.15;;;4.10;99.90;;;;;;5054044;28;20696;-78
2021/03/08 04:30:25;;;;;;;3.08;1.15;;;4.20;99.90;;;;;;5053891;28;20167;-79
2021/03/08 04:32:53;;;;;;;1.33;1.33;;;4.40;99.90;;;;;;5054454;28;20190;-77
2021/03/08 04:35:25;;;;;;;1.20;0.93;;;4.40;99.90;;;;;;5054515;28;20209;-79
2021/03/08 04:37:52;;;;;;;7.03;2.78;;;4.30;99.90;;;;;;5054341;28;20696;-78
2021/03/08 04:40:18;;;;;;;2.80;1.17;;;4.30;99.90;;;;;;5054095;28;20281;-79
2021/03/08 04:42:44;;;;;;;1.98;1.52;;;4.40;99.90;;;;;;5054019;28;20182;-78
2021/03/08 04:45:11;;;;;;;2.78;2.38;;;4.50;99.90;;;;;;5054068;28;20175;-78
2021/03/08 04:47:40;;;;;;;0.30;0.30;;;4.40;99.90;;;;;;5054103;28;20187;-79
2021/03/08 04:50:07;;;;;;;1.98;1.25;;;4.20;99.90;;;;;;5054248;28;20249;-79
2021/03/08 04:52:34;;;;;;;3.03;1.33;;;4.10;99.90;;;;;;5054334;28;20160;-79
2021/03/08 04:55:00;;;;;;;1.85;1.75;;;4.30;99.90;;;;;;5054105;28;20194;-79
2021/03/08 04:57:27;;;;;;;1.85;1.75;;;4.30;99.90;;;;;;5053592;28;20187;-78
2021/03/08 04:59:53;;;;;;;2.42;2.08;;;4.20;99.90;;;;;;5053163;28;20159;-78
2021/03/08 05:02:20;;;;;;;0.73;0.70;;;4.10;99.90;;;;;;5053759;28;20579;-79
2021/03/08 05:04:49;;;;;;;1.23;0.82;;;4.30;99.90;;;;;;5053644;28;20197;-79
2021/03/08 05:07:25;;;;;;;0.82;0.82;;;4.10;99.90;;;;;;5053737;28;20253;-78
2021/03/08 05:09:53;;;;;;;4.03;1.95;;;4.30;99.90;;;;;;5052867;28;20642;-77
2021/03/08 05:12:20;;;;;;;1.25;1.15;;;4.30;99.90;;;;;;5053311;28;20213;-78
2021/03/08 05:14:47;;;;;;;0.73;0.73;;;4.20;99.90;;;;;;5053207;28;20308;-76
2021/03/08 05:17:16;;;;;;;1.20;1.10;;;4.30;99.90;;;;;;5053263;28;20183;-77
2021/03/08 05:19:45;;;;;;;1.83;1.73;;;4.40;99.90;;;;;;5055423;28;20623;-77
2021/03/08 05:22:13;;;;;;;2.55;2.38;;;4.30;99.90;;;;;;5054155;28;20689;-78
2021/03/08 05:24:40;;;;;;;1.58;1.48;;;4.20;99.90;;;;;;5053746;28;20167;-78
2021/03/08 05:27:08;;;;;;;1.65;1.55;;;4.30;99.90;;;;;;5053065;28;20202;-78
2021/03/08 05:29:45;;;;;;;1.13;1.13;;;4.30;99.90;;;;;;5054439;28;20166;-78
2021/03/08 05:32:14;;;;;;;3.97;2.50;;;4.20;99.90;;;;;;5053789;28;20629;-78
2021/03/08 05:34:44;;;;;;;14.10;2.00;;;4.30;99.90;;;;;;5053608;28;20207;-77
2021/03/08 05:37:12;;;;;;;2.25;1.20;;;4.30;99.90;;;;;;5053285;28;20810;-77
2021/03/08 05:39:41;;;;;;;4.53;2.00;;;4.30;99.90;;;;;;5053754;28;20156;-77
2021/03/08 05:42:14;;;;;;;4.28;1.60;;;4.60;99.90;;;;;;5053586;28;20688;-77
2021/03/08 05:45:05;;;;;;;0.50;0.50;;;4.80;99.90;;;;;;5054192;28;20234;-79
2021/03/08 05:48:05;;;;;;;1.02;1.02;;;4.80;99.90;;;;;;5066000;28;20191;-78
2021/03/08 05:50:53;;;;;;;0.55;0.55;;;4.60;99.90;;;;;;5049656;28;20542;-77
2021/03/08 05:53:31;;;;;;;1.95;1.85;;;4.30;99.90;;;;;;5055353;28;20159;-78
2021/03/08 05:56:16;;;;;;;8.88;0.77;;;4.30;99.90;;;;;;5053362;28;20179;-79
2021/03/08 05:59:19;;;;;;;0.60;0.60;;;4.50;99.90;;;;;;5053381;28;20226;-78
2021/03/08 06:02:36;;;;;;;3.08;2.30;;;4.60;99.90;;;;;;5053054;28;20202;-78
2021/03/08 06:05:31;;;;;;;2.47;2.38;;;4.80;99.90;;;;;;5019496;28;20573;-79
2021/03/08 06:08:15;;;;;;;8.85;1.80;;;5.10;99.90;;;;;;5052844;28;20658;-77
2021/03/08 06:10:47;;;;;;;1.83;1.73;;;5.10;99.90;;;;;;5052772;28;20294;-78
2021/03/08 06:13:17;;;;;;;3.58;1.63;;;4.90;99.90;;;;;;5056433;28;20575;-78
2021/03/08 06:15:46;;;;;;;3.33;3.13;;;5.00;99.90;;;;;;5056498;28;20499;-78
2021/03/08 06:18:12;;;;;;;2.67;1.73;;;4.90;99.90;;;;;;5056327;28;20490;-78
2021/03/08 06:20:38;;;;;;;1.38;1.35;;;5.10;99.90;;;;;;5056171;28;20543;-77
2021/03/08 06:23:04;;;;;;;2.08;1.42;;;5.10;99.90;;;;;;5057302;28;20170;-78
2021/03/08 06:25:30;;;;;;;1.95;1.85;;;5.10;99.90;;;;;;5057688;28;20195;-79
2021/03/08 06:27:57;;;;;;;19.20;2.40;;;4.90;99.90;;;;;;5057475;28;20182;-78
2021/03/08 06:30:24;;;;;;;1.50;1.40;;;4.90;99.90;;;;;;5056967;28;20221;-77
2021/03/08 06:32:50;;;;;;;1.75;1.65;;;4.90;99.90;;;;;;5056708;28;20162;-78
2021/03/08 06:35:17;;;;;;;2.17;1.88;;;5.10;99.90;;;;;;5038251;28;20171;-77
2021/03/08 06:37:45;;;;;;;10.63;2.38;;;5.10;99.90;;;;;;5055971;28;20278;-78
2021/03/08 06:40:12;;;;;;;1.52;1.35;;;5.00;99.90;;;;;;5056007;28;20175;-77
2021/03/08 06:42:38;;;;;;;5.20;2.97;;;5.00;99.90;;;;;;5056331;28;20166;-77
2021/03/08 06:45:06;;;;;;;2.22;2.13;;;5.00;99.90;;;;;;5055563;28;20170;-75
2021/03/08 06:47:32;;;;;;;3.70;1.85;;;5.30;99.90;;;;;;5056158;28;20540;-76
2021/03/08 06:49:58;;;;;;;2.55;2.35;;;5.20;99.90;;;;;;5056049;28;20171;-77
2021/03/08 06:52:38;;;;;;;2.00;1.60;;;5.30;99.90;;;;;;5055477;28;20163;-76
2021/03/08 06:55:04;;;;;;;5.30;2.83;;;5.60;99.90;;;;;;5055555;28;20193;-78
2021/03/08 06:57:35;;;;;;;2.38;2.28;;;5.60;99.90;;;;;;5055595;28;20215;-76
2021/03/08 07:00:09;;;;;;;3.00;2.70;;;5.50;99.90;;;;;;5055820;28;20148;-77
2021/03/08 07:02:45;;;;;;;3.70;2.38;;;5.60;99.90;;;;;;5055609;28;20198;-76
2021/03/08 07:05:27;;;;;;;4.32;2.08;;;5.60;99.90;;;;;;5055377;28;20169;-77
2021/03/08 07:08:00;;;;;;;3.45;1.23;;;5.80;99.90;;;;;;5055094;28;20190;-77
2021/03/08 07:10:34;;;;;;;7.13;3.25;;;5.70;99.90;;;;;;5055252;28;20536;-78
2021/03/08 07:13:00;;;;;;;0.90;0.90;;;5.80;99.90;;;;;;5055276;28;20156;-77
2021/03/08 07:15:26;;;;;;;5.88;2.58;;;6.00;99.90;;;;;;5055584;28;20167;-77
2021/03/08 07:17:52;;;;;;;1.95;1.63;;;6.10;99.90;;;;;;5054776;28;20183;-78
2021/03/08 07:20:17;;;;;;;4.10;2.40;;;6.20;99.90;;;;;;5055093;28;20199;-77
2021/03/08 07:22:43;;;;;;;1.30;1.30;;;6.20;99.90;;;;;;5055100;28;20577;-78
2021/03/08 07:25:31;;;;;;;6.50;2.47;;;6.30;99.90;;;;;;5054841;28;20175;-77
2021/03/08 07:28:02;;;;;;;5.85;2.53;;;6.40;99.90;;;;;;5036709;28;20270;-77
2021/03/08 07:30:33;;;;;;;2.63;2.53;;;6.30;99.90;;;;;;5054526;28;20163;-76
2021/03/08 07:33:10;;;;;;;3.40;2.92;;;6.40;99.90;;;;;;5054678;28;20520;-75
2021/03/08 07:35:47;;;;;;;15.63;3.55;;;6.50;99.90;;;;;;5054803;28;20163;-77
2021/03/08 07:38:15;;;;;;;7.78;2.63;;;6.00;99.90;;;;;;5054671;28;20254;-77
2021/03/08 07:40:43;;;;;;;4.97;2.47;;;6.00;99.90;;;;;;5054660;28;20206;-76
2021/03/08 07:43:25;;;;;;;1.25;1.23;;;6.20;99.90;;;;;;5054811;28;20170;-75
2021/03/08 07:45:51;;;;;;;2.53;2.35;;;6.40;99.90;;;;;;5054318;28;20246;-76
2021/03/08 07:48:19;;;;;;;10.38;4.22;;;6.40;99.90;;;;;;5054827;28;20236;-77
2021/03/08 07:50:47;;;;;;;2.55;2.35;;;6.10;99.90;;;;;;5054044;28;20186;-77
2021/03/08 07:53:32;;;;;;;8.48;3.20;;;5.80;99.90;;;;;;5054309;28;20606;-76
2021/03/08 07:56:00;;;;;;;2.13;2.03;;;5.90;99.90;;;;;;5054183;28;20159;-77
2021/03/08 07:58:28;;;;;;;6.10;4.45;;;6.20;99.90;;;;;;5054094;28;20254;-82
2021/03/08 08:00:55;;;;;;;5.25;4.85;;;6.30;99.90;;;;;;5057273;28;20210;-82
2021/03/08 08:03:20;;;;;;;3.78;3.55;;;6.30;99.90;;;;;;5039728;28;20302;-81
2021/03/08 08:06:20;;;;;;;14.38;3.03;;;6.40;99.90;;;;;;5055737;28;20433;-77
2021/03/08 08:08:53;;;;;;;3.70;3.15;;;6.70;99.90;;;;;;5037138;28;20191;-77
2021/03/08 08:11:21;;;;;;;1.83;1.73;;;6.90;99.90;;;;;;5053886;28;20163;-77
2021/03/08 08:13:57;;;;;;;8.45;4.20;;;7.00;99.90;;;;;;5053709;28;20634;-76
2021/03/08 08:16:35;;;;;;;4.68;4.25;;;7.00;99.90;;;;;;5054021;28;20195;-78
2021/03/08 08:19:05;;;;;;;6.93;3.92;;;6.70;99.90;;;;;;5055883;28;20170;-77
2021/03/08 08:21:50;;;;;;;7.00;5.07;;;6.60;99.90;;;;;;5065753;28;20198;-76
2021/03/08 08:24:22;;;;;;;4.75;4.28;;;6.80;99.90;;;;;;5051520;28;20586;-75
2021/03/08 08:26:55;;;;;;;9.35;2.95;;;6.90;99.90;;;;;;5055781;28;20195;-77
2021/03/08 08:29:22;;;;;;;6.00;2.85;;;7.00;99.90;;;;;;5054659;28;20154;-78
2021/03/08 08:32:05;;;;;;;11.38;4.15;;;7.20;99.90;;;;;;5054493;28;20637;-78
2021/03/08 08:34:45;;;;;;;5.40;3.33;;;7.40;99.90;;;;;;5054684;28;20167;-77
2021/03/08 08:37:14;;;;;;;3.50;2.85;;;7.60;99.90;;;;;;5054050;28;20537;-77
2021/03/08 08:40:03;;;;;;;13.15;4.57;;;7.60;99.90;;;;;;5054029;28;20163;-78
2021/03/08 08:42:29;;;;;;;17.52;3.80;;;7.50;99.90;;;;;;5043034;28;20248;-77
2021/03/08 08:44:57;;;;;;;5.15;3.90;;;7.60;99.90;;;;;;5035683;28;20202;-78
2021/03/08 08:47:31;;;;;;;27.45;5.97;;;7.60;99.90;;;;;;5053114;28;20658;-78
2021/03/08 08:50:02;;;;;;;7.88;5.00;;;7.40;99.90;;;;;;5055519;28;20750;-77
2021/03/08 08:52:48;;;;;;;2.47;2.38;;;7.20;99.90;;;;;;5059374;28;20996;-78
2021/03/08 08:55:15;;;;;;;2.67;2.47;;;7.30;99.90;;;;;;5053132;28;20181;-77
2021/03/08 08:58:18;;;;;;;2.95;2.33;;;7.40;99.90;;;;;;5057231;28;20202;-78
2021/03/08 09:01:04;;;;;;;19.45;3.97;;;7.20;99.90;;;;;;5072712;28;20205;-78
2021/03/08 09:03:56;;;;;;;14.95;2.90;;;7.30;99.90;;;;;;5076263;28;20174;-82
2021/03/08 09:06:45;;;;;;;7.47;3.60;;;7.50;99.90;;;;;;5073378;28;20190;-82
2021/03/08 09:09:13;;;;;;;9.07;2.78;;;7.30;99.90;;;;;;5073328;28;20159;-77
2021/03/08 09:11:42;;;;;;;5.75;3.08;;;7.30;99.90;;;;;;5071043;28;20679;-82
2021/03/08 09:14:21;;;;;;;12.48;2.88;;;7.50;99.90;;;;;;5052180;28;20420;-76
2021/03/08 09:16:47;;;;;;;5.75;3.92;;;7.30;99.90;;;;;;5051189;28;20843;-77
2021/03/08 09:19:22;;;;;;;4.47;2.13;;;7.50;99.90;;;;;;5053501;28;20506;-76
2021/03/08 09:21:48;;;;;;;4.72;2.53;;;7.40;99.90;;;;;;5052105;28;20218;-76
2021/03/08 09:24:33;;;;;;;16.55;2.67;;;7.50;99.90;;;;;;5052546;28;20210;-76
2021/03/08 09:27:03;;;;;;;5.20;2.42;;;7.70;99.90;;;;;;5052723;28;20563;-77
2021/03/08 09:29:29;;;;;;;3.55;3.35;;;7.70;99.90;;;;;;5042251;28;20634;-75
2021/03/08 09:31:57;;;;;;;10.95;2.92;;;7.80;99.90;;;;;;5064597;28;20181;-74
2021/03/08 09:34:23;;;;;;;7.00;2.92;;;8.00;99.90;;;;;;5051109;28;20258;-74
2021/03/08 09:36:49;;;;;;;11.32;3.80;;;8.20;99.90;;;;;;5033846;28;20260;-77
2021/03/08 09:39:15;;;;;;;2.80;2.60;;;8.10;99.90;;;;;;5051498;28;20155;-77
2021/03/08 09:41:41;;;;;;;6.50;3.80;;;7.90;99.90;;;;;;5050401;28;20206;-75
2021/03/08 09:44:07;;;;;;;4.85;3.10;;;7.90;99.90;;;;;;5052436;28;20179;-75
2021/03/08 09:46:32;;;;;;;2.85;2.63;;;7.80;99.90;;;;;;5069926;28;20224;-75
2021/03/08 09:49:04;;;;;;;17.77;2.70;;;7.90;99.90;;;;;;5055548;28;20171;-77
2021/03/08 09:51:30;;;;;;;3.42;2.63;;;8.00;99.90;;;;;;5055069;28;20220;-77
2021/03/08 09:53:56;;;;;;;2.30;2.08;;;7.90;99.90;;;;;;5055332;28;20171;-77
2021/03/08 09:56:24;;;;;;;2.55;2.35;;;7.70;99.90;;;;;;5055590;28;20195;-76
2021/03/08 09:59:02;;;;;;;2.58;2.08;;;7.80;99.90;;;;;;5054698;28;20853;-76
2021/03/08 10:01:28;;;;;;;2.80;2.60;;;7.90;99.90;;;;;;5054789;28;20205;-77
2021/03/08 10:03:54;;;;;;;4.95;3.00;;;7.90;99.90;;;;;;5056717;28;20211;-76
2021/03/08 10:06:30;;;;;;;5.50;2.92;;;8.30;99.90;;;;;;5055310;28;20223;-76
2021/03/08 10:08:58;;;;;;;14.25;2.35;;;8.60;99.90;;;;;;5054792;28;20205;-75
2021/03/08 10:11:25;;;;;;;2.30;1.88;;;8.70;99.90;;;;;;5054225;28;20267;-76
2021/03/08 10:13:52;;;;;;;2.15;1.95;;;8.50;99.90;;;;;;5055154;28;20654;-76
2021/03/08 10:16:23;;;;;;;1.90;1.80;;;8.30;99.90;;;;;;5054955;28;20612;-75
2021/03/08 10:18:49;;;;;;;2.88;2.42;;;8.40;99.90;;;;;;5053974;28;20592;-76
2021/03/08 10:21:15;;;;;;;4.93;3.20;;;8.50;99.90;;;;;;5054210;28;20558;-77
2021/03/08 10:23:41;;;;;;;2.95;2.65;;;8.70;99.90;;;;;;5053668;28;20167;-85
2021/03/08 10:26:10;;;;;;;8.32;6.10;;;8.60;99.90;;;;;;5062730;28;20282;-76
2021/03/08 10:28:42;;;;;;;3.08;2.80;;;8.80;99.90;;;;;;5072111;28;20169;-77
2021/03/08 10:31:29;;;;;;;4.53;3.05;;;8.60;99.90;;;;;;5054986;28;20192;-82
2021/03/08 10:33:56;;;;;;;3.85;1.38;;;8.50;99.90;;;;;;5055005;28;20159;-82
2021/03/08 10:36:25;;;;;;;2.63;2.42;;;8.30;99.90;;;;;;5056583;28;20194;-82
2021/03/08 10:39:01;;;;;;;6.15;2.05;;;8.50;99.90;;;;;;5074842;28;20183;-82
2021/03/08 10:41:29;;;;;;;4.15;2.55;;;8.20;99.90;;;;;;5059928;28;20206;-82
2021/03/08 10:43:55;;;;;;;3.63;2.95;;;8.30;99.90;;;;;;5074393;28;20173;-82
2021/03/08 10:46:21;;;;;;;2.28;2.00;;;8.60;99.90;;;;;;5075910;28;20192;-82
2021/03/08 10:49:04;;;;;;;1.75;1.65;;;8.90;99.90;;;;;;5076476;28;20175;-81
2021/03/08 10:51:34;;;;;;;4.95;1.33;;;8.90;99.90;;;;;;5063098;28;20182;-81
2021/03/08 10:54:01;;;;;;;2.65;1.23;;;9.00;99.90;;;;;;5073257;28;20851;-81
2021/03/08 10:56:31;;;;;;;2.25;2.15;;;9.10;99.90;;;;;;5070605;28;20528;-81
2021/03/08 10:58:58;;;;;;;5.15;1.65;;;9.00;99.90;;;;;;5059439;28;20227;-80
2021/03/08 11:01:25;;;;;;;3.30;3.00;;;8.90;99.90;;;;;;5060623;28;20198;-76
2021/03/08 11:03:52;;;;;;;3.38;2.85;;;8.70;99.90;;;;;;5064429;28;20217;-78
2021/03/08 11:06:19;;;;;;;1.73;1.42;;;8.70;99.90;;;;;;5064368;28;20664;-77
2021/03/08 11:08:55;;;;;;;6.88;2.95;;;8.80;99.90;;;;;;5062921;28;20167;-76
2021/03/08 11:11:23;;;;;;;2.15;2.05;;;8.70;99.90;;;;;;5063812;28;20170;-76
2021/03/08 11:13:52;;;;;;;2.08;1.98;;;8.60;99.90;;;;;;5064190;28;20163;-75
2021/03/08 11:16:18;;;;;;;5.63;2.03;;;8.50;99.90;;;;;;5061392;28;20186;-76
2021/03/08 11:18:44;;;;;;;3.40;2.28;;;8.70;99.90;;;;;;5061502;28;20205;-74
2021/03/08 11:21:31;;;;;;;2.50;2.33;;;8.70;99.90;;;;;;5062711;28;20191;-77
2021/03/08 11:24:21;;;;;;;5.72;3.67;;;8.80;99.90;;;;;;5040425;28;20175;-74
2021/03/08 11:27:26;;;;;;;2.97;2.67;;;8.90;99.90;;;;;;5032965;28;20187;-75
2021/03/08 11:30:05;;;;;;;4.07;3.72;;;8.80;99.90;;;;;;5053617;28;20185;-77
2021/03/08 11:32:32;;;;;;;1.65;1.55;;;8.90;99.90;;;;;;5054151;28;20167;-78
2021/03/08 11:34:58;;;;;;;1.60;1.50;;;9.00;99.90;;;;;;5054195;28;20163;-75
2021/03/08 11:37:25;;;;;;;2.28;1.45;;;9.10;99.90;;;;;;5053877;28;20205;-76
2021/03/08 11:39:54;;;;;;;4.22;2.38;;;9.30;99.90;;;;;;5053592;28;20226;-75
2021/03/08 11:42:24;;;;;;;2.22;1.95;;;9.30;99.90;;;;;;5052651;28;20719;-76
2021/03/08 11:44:49;;;;;;;1.92;1.75;;;9.20;99.90;;;;;;5053692;28;20258;-76
2021/03/08 11:47:15;;;;;;;3.55;2.90;;;9.00;99.90;;;;;;5035424;28;20289;-76
2021/03/08 11:49:42;;;;;;;2.33;2.17;;;8.80;99.90;;;;;;5054810;28;20205;-76
2021/03/08 11:52:08;;;;;;;2.75;1.90;;;8.80;99.90;;;;;;5053915;28;20236;-76
2021/03/08 11:54:34;;;;;;;5.75;1.80;;;8.80;99.90;;;;;;5054694;28;20649;-77
2021/03/08 11:57:06;;;;;;;2.50;2.30;;;8.80;99.90;;;;;;5054237;28;20241;-76
2021/03/08 11:59:32;;;;;;;1.65;1.65;;;9.00;99.90;;;;;;5054581;28;20211;-76
2021/03/08 12:01:58;;;;;;;2.90;1.88;;;9.20;99.90;;;;;;5054194;28;20203;-76
2021/03/08 12:04:24;;;;;;;4.03;3.15;;;9.50;99.90;;;;;;5054205;28;20168;-77
2021/03/08 12:06:50;;;;;;;3.53;1.17;;;9.50;99.90;;;;;;5053927;28;20231;-77
2021/03/08 12:09:16;;;;;;;5.18;1.58;;;9.30;99.90;;;;;;5053358;28;20217;-75
2021/03/08 12:11:41;;;;;;;7.55;1.30;;;9.40;99.90;;;;;;5053962;28;20174;-75
2021/03/08 12:14:07;;;;;;;0.93;0.93;;;9.40;99.90;;;;;;5054374;28;20543;-80
2021/03/08 12:16:33;;;;;;;2.05;1.95;;;9.50;99.90;;;;;;5036174;28;20561;-75
2021/03/08 12:18:59;;;;;;;3.30;1.73;;;9.50;99.90;;;;;;5054116;28;20163;-76
2021/03/08 12:21:25;;;;;;;1.00;0.68;;;9.70;99.90;;;;;;5053588;28;20214;-76
2021/03/08 12:23:52;;;;;;;7.65;2.10;;;9.70;99.90;;;;;;5053642;28;20162;-75
2021/03/08 12:26:18;;;;;;;3.72;1.85;;;9.50;99.90;;;;;;5053842;28;20210;-77
2021/03/08 12:28:44;;;;;;;4.53;1.65;;;9.30;99.90;;;;;;5053535;28;20501;-77
2021/03/08 12:31:10;;;;;;;1.25;1.15;;;9.20;99.90;;;;;;5053582;28;20170;-76
2021/03/08 12:33:39;;;;;;;4.40;2.78;;;9.40;99.90;;;;;;5053784;28;20194;-76
2021/03/08 12:36:08;;;;;;;4.97;2.72;;;9.60;99.90;;;;;;5053461;28;20160;-77
2021/03/08 12:38:34;;;;;;;3.55;1.73;;;9.60;99.90;;;;;;5053651;28;20186;-76
2021/03/08 12:41:01;;;;;;;2.03;1.88;;;9.70;99.90;;;;;;5053489;28;20199;-75
2021/03/08 12:43:27;;;;;;;2.40;1.77;;;9.40;99.90;;;;;;5053833;28;20194;-76
2021/03/08 12:45:53;;;;;;;2.25;1.40;;;9.40;99.90;;;;;;5053842;28;20195;-75
2021/03/08 12:48:18;;;;;;;1.45;1.38;;;9.60;99.90;;;;;;5054922;28;20690;-75
2021/03/08 12:50:44;;;;;;;3.05;1.70;;;9.70;99.90;;;;;;5053281;28;20501;-75
2021/03/08 12:53:11;;;;;;;5.18;1.70;;;9.60;99.90;;;;;;5053598;28;20159;-75
2021/03/08 12:55:38;;;;;;;1.20;1.20;;;9.80;99.90;;;;;;5053374;28;20225;-75
2021/03/08 12:58:04;;;;;;;3.28;1.40;;;9.70;99.90;;;;;;5052929;28;20554;-75
2021/03/08 13:00:29;;;;;;;0.55;0.55;;;9.70;99.90;;;;;;5052918;28;20195;-76
2021/03/08 13:02:55;;;;;;;0.55;0.55;;;9.90;99.90;;;;;;5053370;28;20250;-76
2021/03/08 13:05:21;;;;;;;5.50;2.80;;;9.70;99.90;;;;;;5052932;28;20574;-76
2021/03/08 13:07:46;;;;;;;2.75;1.05;;;9.60;99.90;;;;;;5052876;28;20187;-76
2021/03/08 13:10:13;;;;;;;1.20;1.08;;;9.70;99.90;;;;;;5053127;28;20175;-76
2021/03/08 13:12:39;;;;;;;4.07;2.38;;;9.70;99.90;;;;;;5053436;28;20182;-75